createdAt,value
2023-03-29T00:01:59.991Z,4.15
2023-03-29T00:05:02.184Z,4.15
2023-03-29T00:08:04.477Z,4.16
2023-03-29T00:11:08.442Z,4.17
2023-03-29T00:14:10.172Z,4.16
2023-03-29T00:17:11.948Z,4.16
2023-03-29T00:20:13.789Z,4.15
2023-03-29T00:23:15.343Z,4.15
2023-03-29T00:26:18.277Z,4.16
2023-03-29T00:29:19.959Z,4.17
2023-03-29T00:32:21.795Z,4.16
2023-03-29T00:35:23.303Z,4.13
2023-03-29T00:38:24.906Z,4.09
2023-03-29T00:41:28.370Z,4.10
2023-03-29T00:44:48.591Z,4.08
2023-03-29T00:47:51.445Z,4.07
2023-03-29T00:50:54.653Z,4.06
2023-03-29T00:53:59.474Z,4.04
2023-03-29T00:57:04.129Z,4.02
2023-03-29T01:00:10.197Z,4.00
2023-03-29T01:03:24.817Z,3.98
2023-03-29T01:06:29.562Z,3.93
2023-03-29T01:09:33.470Z,3.87
2023-03-29T01:12:40.760Z,3.81
2023-03-29T01:15:44.037Z,3.75
2023-03-29T01:18:47.084Z,3.66
2023-03-29T01:21:51.681Z,3.57
2023-03-29T01:25:02.731Z,3.51
2023-03-29T01:28:08.805Z,3.45
2023-03-29T01:31:12.751Z,3.40
2023-03-29T01:34:16.736Z,3.38
2023-03-29T01:37:24.561Z,3.37
2023-03-29T01:40:31.193Z,3.35
2023-03-29T01:43:36.748Z,3.34
2023-03-29T01:46:40.423Z,3.33
2023-03-29T01:49:45.623Z,3.32
2023-03-29T01:52:50.514Z,3.30
2023-03-29T01:55:53.564Z,3.28
2023-03-29T01:58:58.343Z,3.27
2023-03-29T02:02:01.572Z,3.26
2023-03-29T02:05:03.919Z,3.25
2023-03-29T02:08:07.709Z,3.23
2023-03-29T02:11:09.536Z,3.23
2023-03-29T02:14:13.792Z,3.22
2023-03-29T02:17:16.650Z,3.18
2023-03-29T02:20:22.488Z,3.14
2023-03-29T02:23:27.361Z,3.11
2023-03-29T02:26:29.725Z,3.05
2023-03-29T02:29:32.991Z,3.02
2023-03-29T02:32:38.075Z,3.00
2023-03-29T02:35:45.118Z,2.91
2023-03-29T02:38:47.522Z,2.89
2023-03-29T02:41:50.487Z,2.90
2023-03-29T02:44:56.119Z,2.89
2023-03-29T02:48:00.586Z,2.89
2023-03-29T02:51:05.288Z,2.90
2023-03-29T02:54:09.786Z,2.91
2023-03-29T02:57:12.400Z,2.92
2023-03-29T03:00:20.268Z,2.90
2023-03-29T03:03:22.349Z,2.88
2023-03-29T03:06:25.253Z,2.90
2023-03-29T03:09:27.439Z,2.94
2023-03-29T03:12:29.184Z,2.89
2023-03-29T03:15:36.590Z,2.96
2023-03-29T03:18:38.616Z,2.92
2023-03-29T03:21:40.529Z,2.91
2023-03-29T03:24:42.065Z,2.89
2023-03-29T03:27:46.786Z,2.89
2023-03-29T03:30:50.173Z,2.97
2023-03-29T03:33:52.932Z,2.94
2023-03-29T03:37:07.019Z,2.95
2023-03-29T03:40:11.750Z,2.92
2023-03-29T03:43:13.910Z,2.93
2023-03-29T03:46:17.644Z,2.89
2023-03-29T03:49:21.825Z,2.87
2023-03-29T03:52:23.425Z,2.84
2023-03-29T03:55:25.318Z,2.85
2023-03-29T03:58:38.547Z,2.89
2023-03-29T04:01:43.888Z,2.90
2023-03-29T04:04:51.917Z,2.92
2023-03-29T04:07:54.374Z,2.96
2023-03-29T04:11:15.911Z,2.93
2023-03-29T04:14:17.907Z,2.94
2023-03-29T04:17:35.898Z,3.01
2023-03-29T04:20:45.920Z,2.96
2023-03-29T04:23:48.655Z,2.97
2023-03-29T04:26:50.398Z,3.00
2023-03-29T04:29:56.847Z,3.03
2023-03-29T04:33:23.053Z,3.03
2023-03-29T04:36:32.785Z,3.05
2023-03-29T04:39:34.428Z,3.04
2023-03-29T04:42:39.058Z,3.02
2023-03-29T04:45:40.830Z,3.06
2023-03-29T04:48:52.285Z,3.09
2023-03-29T04:52:03.021Z,3.10
2023-03-29T04:55:06.958Z,3.14
2023-03-29T04:58:31.662Z,3.14
2023-03-29T05:01:35.168Z,3.10
2023-03-29T05:04:38.346Z,3.08
2023-03-29T05:07:47.999Z,3.09
2023-03-29T05:10:52.420Z,3.11
2023-03-29T05:13:57.173Z,3.13
2023-03-29T05:17:01.364Z,3.16
2023-03-29T05:20:10.194Z,3.17
2023-03-29T05:23:12.544Z,3.17
2023-03-29T05:26:40.073Z,3.23
2023-03-29T05:29:44.565Z,3.24
2023-03-29T05:33:00.359Z,3.28
2023-03-29T05:36:06.438Z,3.30
2023-03-29T05:39:10.959Z,3.32
2023-03-29T05:42:15.499Z,3.33
2023-03-29T05:45:30.281Z,3.34
2023-03-29T05:48:32.643Z,3.36
2023-03-29T05:51:36.957Z,3.37
2023-03-29T05:54:39.792Z,3.42
2023-03-29T05:57:41.884Z,3.44
2023-03-29T06:00:44.246Z,3.49
2023-03-29T06:04:00.981Z,3.54
2023-03-29T06:07:12.684Z,3.57
2023-03-29T06:10:18.060Z,3.61
2023-03-29T06:13:23.606Z,3.65
2023-03-29T06:16:26.015Z,3.72
2023-03-29T06:19:27.547Z,3.75
2023-03-29T06:22:31.425Z,3.79
2023-03-29T06:25:34.173Z,3.82
2023-03-29T06:28:36.576Z,3.83
2023-03-29T06:31:38.510Z,3.84
2023-03-29T06:34:43.276Z,3.85
2023-03-29T06:38:15.623Z,3.87
2023-03-29T06:41:46.205Z,3.92
2023-03-29T06:44:59.404Z,3.97
2023-03-29T06:48:02.206Z,4.02
2023-03-29T06:51:05.771Z,4.08
2023-03-29T06:54:08.676Z,4.13
2023-03-29T07:00:18.493Z,4.20
2023-03-29T07:03:41.249Z,4.21
2023-03-29T07:06:48.431Z,4.22
2023-03-29T07:09:55.732Z,4.26
2023-03-29T07:13:15.932Z,4.38
2023-03-29T07:16:19.425Z,4.44
2023-03-29T07:19:45.755Z,4.52
2023-03-29T07:23:06.875Z,4.63
2023-03-29T07:26:10.599Z,4.74
2023-03-29T07:29:13.262Z,4.79
2023-03-29T07:32:15.806Z,4.81
2023-03-29T07:35:17.883Z,4.86
2023-03-29T07:38:19.521Z,4.91
2023-03-29T07:41:28.315Z,4.92
2023-03-29T07:44:38.367Z,4.95
2023-03-29T07:47:40.377Z,5.01
2023-03-29T07:50:43.260Z,5.00
2023-03-29T07:53:45.242Z,4.99
2023-03-29T07:57:18.431Z,5.01
2023-03-29T08:00:26.507Z,4.98
2023-03-29T08:03:48.165Z,5.00
2023-03-29T08:06:49.971Z,4.97
2023-03-29T08:09:52.640Z,4.94
2023-03-29T08:12:59.898Z,4.98
2023-03-29T08:16:19.459Z,5.00
2023-03-29T08:19:27.977Z,5.07
2023-03-29T08:22:39.387Z,5.18
2023-03-29T08:26:02.937Z,5.24
2023-03-29T08:29:06.778Z,5.34
2023-03-29T08:32:08.355Z,5.33
2023-03-29T08:35:10.178Z,5.35
2023-03-29T08:38:18.174Z,5.43
2023-03-29T08:41:27.459Z,5.47
2023-03-29T08:44:42.818Z,5.59
2023-03-29T08:47:54.402Z,5.56
2023-03-29T08:50:59.412Z,5.46
2023-03-29T08:54:03.826Z,5.41
2023-03-29T08:57:20.439Z,5.44
2023-03-29T09:00:32.572Z,5.44
2023-03-29T09:03:39.803Z,5.49
2023-03-29T09:06:48.713Z,5.58
2023-03-29T09:09:57.380Z,5.67
2023-03-29T09:13:23.636Z,5.71
2023-03-29T09:16:29.096Z,5.75
2023-03-29T09:19:34.584Z,5.79
2023-03-29T09:22:41.898Z,5.85
2023-03-29T09:25:53.609Z,5.77
2023-03-29T09:29:09.004Z,5.79
2023-03-29T09:32:16.926Z,5.82
2023-03-29T09:35:22.502Z,5.83
2023-03-29T09:38:25.221Z,5.80
2023-03-29T09:41:28.763Z,5.81
2023-03-29T09:44:33.629Z,5.92
2023-03-29T09:47:44.829Z,5.98
2023-03-29T09:50:47.516Z,5.98
2023-03-29T09:53:49.944Z,6.06
2023-03-29T09:57:04.288Z,6.17
2023-03-29T10:00:07.127Z,6.35
2023-03-29T10:03:20.019Z,6.47
2023-03-29T10:06:28.811Z,6.45
2023-03-29T10:09:35.825Z,6.52
2023-03-29T10:12:54.364Z,6.66
2023-03-29T10:15:57.767Z,6.86
2023-03-29T10:19:07.785Z,6.96
2023-03-29T10:22:16.469Z,7.01
2023-03-29T10:25:18.492Z,6.95
2023-03-29T10:28:22.795Z,7.00
2023-03-29T10:31:25.033Z,7.18
2023-03-29T10:34:36.451Z,7.37
2023-03-29T10:37:40.406Z,7.46
2023-03-29T10:40:43.399Z,7.53
2023-03-29T10:43:46.516Z,7.48
2023-03-29T10:46:48.047Z,7.52
2023-03-29T10:49:56.462Z,7.59
2023-03-29T10:52:58.602Z,7.67
2023-03-29T10:56:07.625Z,7.63
2023-03-29T10:59:25.262Z,7.54
2023-03-29T11:02:37.003Z,7.45
2023-03-29T11:05:43.333Z,7.44
2023-03-29T11:08:57.568Z,7.46
2023-03-29T11:12:14.857Z,7.54
2023-03-29T11:15:24.667Z,7.59
2023-03-29T11:18:34.633Z,7.62
2023-03-29T11:21:39.875Z,7.64
2023-03-29T11:24:50.396Z,7.66
2023-03-29T11:27:56.410Z,7.68
2023-03-29T11:31:03.346Z,7.74
2023-03-29T11:34:12.687Z,7.83
2023-03-29T11:37:19.362Z,7.85
2023-03-29T11:40:34.393Z,7.85
2023-03-29T11:43:38.434Z,7.80
2023-03-29T11:46:41.674Z,7.77
2023-03-29T11:49:47.035Z,7.69
2023-03-29T11:52:53.470Z,7.67
2023-03-29T11:55:55.460Z,7.61
2023-03-29T11:58:59.606Z,7.51
2023-03-29T12:02:05.209Z,7.48
2023-03-29T12:05:11.700Z,7.50
2023-03-29T12:08:17.798Z,7.54
2023-03-29T12:11:23.031Z,7.58
2023-03-29T12:14:28.190Z,7.61
2023-03-29T12:17:32.193Z,7.58
2023-03-29T12:20:36.523Z,7.54
2023-03-29T12:23:41.377Z,7.46
2023-03-29T12:26:52.644Z,7.48
2023-03-29T12:30:13.125Z,7.50
2023-03-29T12:33:25.846Z,7.53
2023-03-29T12:36:52.180Z,7.58
2023-03-29T12:40:15.613Z,7.59
2023-03-29T12:43:38.555Z,7.62
2023-03-29T12:46:59.308Z,7.61
2023-03-29T12:50:01.404Z,7.59
2023-03-29T12:53:04.894Z,7.56
2023-03-29T12:56:13.640Z,7.56
2023-03-29T12:59:25.715Z,7.60
2023-03-29T13:02:35.099Z,7.65
2023-03-29T13:05:38.255Z,7.65
2023-03-29T13:08:41.061Z,7.67
2023-03-29T13:11:45.118Z,7.71
2023-03-29T13:14:49.700Z,7.74
2023-03-29T13:17:56.175Z,7.76
2023-03-29T13:21:01.625Z,7.72
2023-03-29T13:24:08.901Z,7.70
2023-03-29T13:27:17.825Z,7.63
2023-03-29T13:30:23.866Z,7.64
2023-03-29T13:33:38.214Z,7.70
2023-03-29T13:36:53.642Z,7.73
2023-03-29T13:39:55.981Z,7.79
2023-03-29T13:42:59.887Z,7.85
2023-03-29T13:46:19.513Z,8.03
2023-03-29T13:49:23.973Z,8.24
2023-03-29T13:52:27.850Z,8.40
2023-03-29T13:55:32.716Z,8.48
2023-03-29T13:58:41.755Z,8.53
2023-03-29T14:01:48.490Z,8.68
2023-03-29T14:04:51.617Z,8.81
2023-03-29T14:07:54.288Z,8.98
2023-03-29T14:10:56.245Z,9.09
2023-03-29T14:14:00.185Z,9.07
2023-03-29T14:17:01.995Z,9.11
2023-03-29T14:20:09.061Z,9.14
2023-03-29T14:23:13.265Z,9.09
2023-03-29T14:26:16.929Z,9.08
2023-03-29T14:29:20.198Z,9.08
2023-03-29T14:32:28.307Z,9.06
2023-03-29T14:35:32.351Z,8.97
2023-03-29T14:38:36.522Z,9.00
2023-03-29T14:44:57.734Z,9.05
2023-03-29T14:47:59.842Z,9.12
2023-03-29T14:51:01.826Z,9.16
2023-03-29T14:54:04.301Z,9.17
2023-03-29T14:57:08.880Z,9.15
2023-03-29T15:00:24.752Z,9.09
2023-03-29T15:03:27.192Z,9.08
2023-03-29T15:06:29.933Z,9.05
2023-03-29T15:09:32.626Z,9.04
2023-03-29T15:12:34.327Z,9.08
2023-03-29T15:15:38.479Z,9.16
2023-03-29T15:18:41.862Z,9.24
2023-03-29T15:21:44.440Z,9.27
2023-03-29T15:24:48.466Z,9.30
2023-03-29T15:27:51.362Z,9.26
2023-03-29T15:31:07.316Z,9.23
2023-03-29T15:34:11.098Z,9.22
2023-03-29T15:37:13.013Z,9.25
2023-03-29T15:40:16.354Z,9.26
2023-03-29T15:43:19.879Z,9.25
2023-03-29T15:46:22.856Z,9.24
2023-03-29T15:49:25.139Z,9.23
2023-03-29T15:52:26.708Z,9.19
2023-03-29T15:55:29.501Z,9.16
2023-03-29T15:58:31.759Z,9.18
2023-03-29T16:01:35.706Z,9.18
2023-03-29T16:04:37.385Z,9.19
2023-03-29T16:07:39.600Z,9.20
2023-03-29T16:10:41.726Z,9.21
2023-03-29T16:13:43.445Z,9.23
2023-03-29T16:16:46.727Z,9.24
2023-03-29T16:19:48.466Z,9.22
2023-03-29T16:22:50.106Z,9.25
2023-03-29T16:25:51.719Z,9.31
2023-03-29T16:28:53.352Z,9.35
2023-03-29T16:31:56.297Z,9.35
2023-03-29T16:34:58.429Z,9.33
2023-03-29T16:37:59.947Z,9.29
2023-03-29T16:41:01.813Z,9.28
2023-03-29T16:44:04.013Z,9.24
2023-03-29T16:47:06.979Z,9.25
2023-03-29T16:50:09.493Z,9.25
2023-03-29T16:53:11.382Z,9.26
2023-03-29T16:56:13.127Z,9.22
2023-03-29T16:59:15.532Z,9.25
2023-03-29T17:02:18.505Z,9.29
2023-03-29T17:05:20.251Z,9.22
2023-03-29T17:08:21.779Z,9.17
2023-03-29T17:11:23.575Z,9.12
2023-03-29T17:14:26.437Z,9.08
2023-03-29T17:17:29.340Z,9.05
2023-03-29T17:20:31.671Z,9.06
2023-03-29T17:23:33.350Z,9.07
2023-03-29T17:26:35.004Z,9.08
2023-03-29T17:29:36.684Z,9.08
2023-03-29T17:32:41.497Z,9.07
2023-03-29T17:35:43.742Z,8.98
2023-03-29T17:38:49.024Z,8.83
2023-03-29T17:41:50.544Z,8.78
2023-03-29T17:44:52.091Z,8.75
2023-03-29T17:47:55.659Z,8.70
2023-03-29T17:50:57.917Z,8.70
2023-03-29T17:53:59.500Z,8.75
2023-03-29T17:57:01.120Z,8.83
2023-03-29T18:00:02.761Z,8.90
2023-03-29T18:03:08.182Z,8.96
2023-03-29T18:06:09.911Z,9.02
2023-03-29T18:09:12.440Z,9.06
2023-03-29T18:12:13.985Z,9.07
2023-03-29T18:15:15.605Z,9.09
2023-03-29T18:18:18.744Z,9.05
2023-03-29T18:21:20.833Z,8.96
2023-03-29T18:24:22.361Z,8.91
2023-03-29T18:27:24.094Z,8.84
2023-03-29T18:30:25.996Z,8.83
2023-03-29T18:33:30.374Z,8.83
2023-03-29T18:36:32.397Z,8.91
2023-03-29T18:39:35.851Z,9.05
2023-03-29T18:42:37.676Z,9.17
2023-03-29T18:45:39.353Z,9.27
2023-03-29T18:48:42.436Z,9.37
2023-03-29T18:51:44.136Z,9.42
2023-03-29T18:54:45.911Z,9.38
2023-03-29T18:57:47.564Z,9.39
2023-03-29T19:00:49.150Z,9.41
2023-03-29T19:03:52.169Z,9.40
2023-03-29T19:06:54.118Z,9.43
2023-03-29T19:09:55.653Z,9.41
2023-03-29T19:12:57.402Z,9.46
2023-03-29T19:15:59.257Z,9.52
2023-03-29T19:19:02.373Z,9.56
2023-03-29T19:22:04.642Z,9.47
2023-03-29T19:25:06.822Z,9.43
2023-03-29T19:28:08.708Z,9.39
2023-03-29T19:31:10.848Z,9.36
2023-03-29T19:34:14.377Z,9.35
2023-03-29T19:37:17.552Z,9.37
2023-03-29T19:40:20.170Z,9.39
2023-03-29T19:43:21.921Z,9.40
2023-03-29T19:46:23.645Z,9.41
2023-03-29T19:49:26.713Z,9.47
2023-03-29T19:52:29.049Z,9.49
2023-03-29T19:55:30.889Z,9.44
2023-03-29T19:58:32.510Z,9.43
2023-03-29T20:01:34.440Z,9.42
2023-03-29T20:04:37.616Z,9.39
2023-03-29T20:07:39.517Z,9.41
2023-03-29T20:10:41.537Z,9.46
2023-03-29T20:13:43.701Z,9.46
2023-03-29T20:16:46.280Z,9.50
2023-03-29T20:19:49.327Z,9.50
2023-03-29T20:22:53.908Z,9.56
2023-03-29T20:25:57.051Z,9.65
2023-03-29T20:28:58.639Z,9.71
2023-03-29T20:32:00.367Z,9.70
2023-03-29T20:35:04.155Z,9.63
2023-03-29T20:38:05.941Z,9.69
2023-03-29T20:41:09.279Z,9.72
2023-03-29T20:44:12.661Z,9.76
2023-03-29T20:47:14.212Z,9.77
2023-03-29T20:50:19.043Z,9.79
2023-03-29T20:53:20.827Z,9.82
2023-03-29T20:56:26.099Z,9.85
2023-03-29T20:59:28.538Z,9.90
2023-03-29T21:02:30.287Z,9.94
2023-03-29T21:05:33.682Z,9.94
2023-03-29T21:08:35.350Z,9.92
2023-03-29T21:11:37.457Z,9.92
2023-03-29T21:14:39.626Z,9.96
2023-03-29T21:17:41.373Z,9.95
2023-03-29T21:20:45.213Z,9.95
2023-03-29T21:23:46.844Z,9.99
2023-03-29T21:26:48.325Z,10.01
2023-03-29T21:29:50.221Z,9.99
2023-03-29T21:32:52.153Z,9.96
2023-03-29T21:35:55.536Z,9.95
2023-03-29T21:38:57.147Z,9.98
2023-03-29T21:41:59.459Z,9.99
2023-03-29T21:45:01.476Z,9.99
2023-03-29T21:48:03.138Z,9.96
2023-03-29T21:51:07.008Z,9.93
2023-03-29T21:54:09.306Z,9.92
2023-03-29T21:57:10.955Z,9.90
2023-03-29T22:00:13.147Z,9.91
2023-03-29T22:03:15.821Z,9.87
2023-03-29T22:06:18.813Z,9.86
2023-03-29T22:09:20.522Z,9.84
2023-03-29T22:12:22.907Z,9.83
2023-03-29T22:15:24.568Z,9.84
2023-03-29T22:18:26.463Z,9.83
2023-03-29T22:21:33.255Z,9.83
2023-03-29T22:24:34.774Z,9.86
2023-03-29T22:27:36.791Z,9.87
2023-03-29T22:30:38.354Z,9.95
2023-03-29T22:33:40.559Z,9.96
2023-03-29T22:36:43.533Z,9.95
2023-03-29T22:39:45.171Z,9.95
2023-03-29T22:42:46.767Z,9.96
2023-03-29T22:45:48.868Z,9.92
2023-03-29T22:48:51.234Z,9.92
2023-03-29T22:51:54.306Z,9.93
2023-03-29T22:54:56.006Z,9.90
2023-03-29T22:57:57.475Z,9.87
2023-03-29T23:00:59.322Z,9.90
2023-03-29T23:04:00.941Z,9.90
2023-03-29T23:07:04.186Z,9.87
2023-03-29T23:10:06.919Z,9.87
2023-03-29T23:13:08.912Z,9.87
2023-03-29T23:16:10.548Z,9.92
2023-03-29T23:19:12.135Z,9.96
2023-03-29T23:22:14.973Z,9.97
2023-03-29T23:25:16.535Z,10.02
2023-03-29T23:28:21.672Z,10.01
2023-03-29T23:31:23.831Z,9.99
2023-03-29T23:34:25.898Z,9.95
2023-03-29T23:37:28.769Z,9.91
2023-03-29T23:40:30.408Z,9.91
2023-03-29T23:43:33.028Z,9.87
2023-03-29T23:46:34.731Z,9.85
2023-03-29T23:49:36.327Z,9.82
2023-03-29T23:52:40.647Z,9.82
2023-03-29T23:55:42.561Z,9.79
2023-03-29T23:58:44.619Z,9.79
